createdAt,value
2023-05-23T00:03:01.011Z,12.28
2023-05-23T00:15:01.396Z,12.19
2023-05-23T00:27:01.852Z,12.20
2023-05-23T00:39:02.295Z,11.93
2023-05-23T00:51:02.719Z,12.02
2023-05-23T01:03:03.312Z,11.96
2023-05-23T01:15:03.678Z,11.79
2023-05-23T01:27:04.132Z,11.58
2023-05-23T01:39:04.568Z,11.41
2023-05-23T01:51:04.961Z,11.35
2023-05-23T02:03:05.516Z,11.10
2023-05-23T02:15:05.894Z,11.10
2023-05-23T02:27:06.343Z,10.98
2023-05-23T02:39:06.822Z,10.34
2023-05-23T02:51:07.286Z,9.87
2023-05-23T03:03:07.810Z,10.15
2023-05-23T03:15:08.133Z,9.94
2023-05-23T03:27:08.633Z,10.39
2023-05-23T03:39:09.054Z,10.34
2023-05-23T03:51:09.514Z,10.61
2023-05-23T04:03:10.139Z,10.77
2023-05-23T04:15:10.439Z,11.02
2023-05-23T04:27:10.961Z,11.43
2023-05-23T04:39:11.343Z,11.80
2023-05-23T04:51:11.843Z,12.02
2023-05-23T05:03:12.243Z,12.58
2023-05-23T05:15:12.737Z,13.40
2023-05-23T05:27:13.180Z,14.28
2023-05-23T05:39:13.620Z,15.77
2023-05-23T05:51:14.093Z,16.96
2023-05-23T06:03:17.119Z,18.30
2023-05-23T06:15:14.963Z,19.79
2023-05-23T06:27:15.457Z,20.75
2023-05-23T06:39:15.875Z,21.54
2023-05-23T06:51:16.452Z,22.07
2023-05-23T07:03:16.806Z,22.32
2023-05-23T07:15:17.299Z,22.87
2023-05-23T07:27:17.682Z,23.35
2023-05-23T07:39:18.206Z,23.92
2023-05-23T07:51:18.636Z,24.43
2023-05-23T08:03:19.253Z,25.30
2023-05-23T08:15:19.543Z,26.50
2023-05-23T08:27:19.971Z,26.31
2023-05-23T08:39:20.459Z,25.51
2023-05-23T08:51:20.901Z,26.84
2023-05-23T09:03:21.352Z,27.01
2023-05-23T09:15:21.847Z,27.75
2023-05-23T09:27:22.267Z,27.15
2023-05-23T09:39:22.712Z,27.32
2023-05-23T09:51:23.216Z,26.73
2023-05-23T10:03:23.652Z,27.61
2023-05-23T10:15:24.119Z,28.62
2023-05-23T10:27:24.559Z,27.49
2023-05-23T10:39:25.020Z,29.47
2023-05-23T10:51:25.457Z,29.73
2023-05-23T11:03:26.032Z,27.47
2023-05-23T11:15:26.381Z,22.36
2023-05-23T11:27:26.782Z,16.59
2023-05-23T11:56:44.653Z,15.34
2023-05-23T12:08:45.106Z,14.59
2023-05-23T12:20:45.588Z,15.16
2023-05-23T12:32:46.109Z,15.85
2023-05-23T12:44:46.532Z,16.20
2023-05-23T12:56:46.925Z,16.58
2023-05-23T13:08:47.439Z,18.34
2023-05-23T13:20:47.963Z,18.26
2023-05-23T13:32:49.561Z,18.01
2023-05-23T13:44:48.749Z,17.65
2023-05-23T13:56:49.255Z,17.33
2023-05-23T14:08:49.710Z,17.65
2023-05-23T14:20:50.153Z,17.42
2023-05-23T14:32:50.623Z,17.83
2023-05-23T14:44:51.033Z,18.30
2023-05-23T14:56:53.388Z,18.77
2023-05-23T15:08:51.985Z,18.76
2023-05-23T15:20:52.428Z,18.36
2023-05-23T15:32:55.799Z,17.93
2023-05-23T15:44:53.402Z,17.15
2023-05-23T15:56:53.761Z,16.45
2023-05-23T16:08:54.250Z,15.71
2023-05-23T16:20:54.768Z,15.27
2023-05-23T16:32:55.239Z,15.33
2023-05-23T16:44:55.628Z,15.64
2023-05-23T16:56:56.063Z,15.39
2023-05-23T17:08:56.531Z,15.55
2023-05-23T17:20:56.993Z,14.88
2023-05-23T17:32:57.477Z,15.12
2023-05-23T17:44:57.921Z,14.87
2023-05-23T17:56:58.332Z,14.76
2023-05-23T18:08:58.809Z,14.80
2023-05-23T18:20:59.245Z,14.77
2023-05-23T18:32:59.800Z,14.68
2023-05-23T18:45:00.150Z,14.62
2023-05-23T18:57:00.631Z,14.72
2023-05-23T19:09:01.075Z,14.58
2023-05-23T19:21:01.534Z,14.65
2023-05-23T19:33:01.992Z,14.72
2023-05-23T19:45:02.464Z,14.52
2023-05-23T19:57:02.881Z,14.50
2023-05-23T20:09:03.336Z,14.54
2023-05-23T20:21:05.177Z,14.32
2023-05-23T20:33:04.368Z,14.41
2023-05-23T20:45:04.689Z,14.32
2023-05-23T20:57:05.169Z,14.30
2023-05-23T21:09:05.598Z,14.43
2023-05-23T21:21:06.091Z,14.38
2023-05-23T21:33:06.531Z,14.22
2023-05-23T21:45:06.944Z,14.01
2023-05-23T21:57:07.430Z,13.85
2023-05-23T22:09:07.888Z,13.69
2023-05-23T22:21:08.320Z,13.50
2023-05-23T22:33:08.870Z,12.99
2023-05-23T22:45:09.239Z,13.14
2023-05-23T22:57:09.707Z,12.78
2023-05-23T23:09:10.191Z,12.87
2023-05-23T23:21:10.610Z,12.57
2023-05-23T23:33:11.073Z,12.74
2023-05-23T23:45:11.533Z,12.59
2023-05-23T23:57:11.963Z,12.38
